Time;durP1;ratioP1;P1;durP2;ratioP2;P2;SDS_P1;SDS_P2;PMS_P1;PMS_P2;Temp;Humidity;BMP_temperature;BMP_pressure;BME280_temperature;BME280_humidity;BME280_pressure;Samples;Min_cycle;Max_cycle;Signal;HPM_P1;HPM_P2
2021/03/27 00:01:42;;;;;;;13.60;5.22;;;;;;;;;;5034177;28;20025;-56
2021/03/27 00:04:11;;;;;;;17.05;6.13;;;;;;;;;;5033381;28;20030;-56
2021/03/27 00:06:40;;;;;;;19.15;6.15;;;;;;;;;;5033702;28;20030;-56
2021/03/27 00:09:20;;;;;;;15.90;5.85;;;;;;;;;;5033119;28;20116;-56
2021/03/27 00:11:49;;;;;;;13.25;5.68;;;;;;;;;;5033538;28;20044;-56
2021/03/27 00:14:18;;;;;;;18.50;6.40;;;;;;;;;;5033521;28;20033;-56
2021/03/27 00:16:55;;;;;;;14.48;5.32;;;;;;;;;;5033780;28;20029;-56
2021/03/27 00:19:32;;;;;;;12.90;4.63;;;;;;;;;;5033189;28;20040;-56
2021/03/27 00:22:01;;;;;;;10.80;4.20;;;;;;;;;;5033738;28;20116;-55
2021/03/27 00:24:36;;;;;;;13.63;5.22;;;;;;;;;;5034398;28;20061;-56
2021/03/27 00:27:06;;;;;;;14.80;5.78;;;;;;;;;;5035546;28;20034;-56
2021/03/27 00:29:37;;;;;;;10.88;4.05;;;;;;;;;;5036146;28;20022;-56
2021/03/27 00:32:07;;;;;;;12.10;4.57;;;;;;;;;;5036133;28;20030;-56
2021/03/27 00:34:36;;;;;;;8.55;4.22;;;;;;;;;;5035733;28;20022;-56
2021/03/27 00:37:04;;;;;;;15.70;4.72;;;;;;;;;;5035809;28;20033;-56
2021/03/27 00:39:47;;;;;;;15.82;5.03;;;;;;;;;;5035750;28;20030;-56
2021/03/27 00:42:21;;;;;;;10.95;4.55;;;;;;;;;;5035977;28;20116;-56
2021/03/27 00:44:57;;;;;;;10.65;4.45;;;;;;;;;;5035528;28;20037;-56
2021/03/27 00:47:26;;;;;;;9.40;5.00;;;;;;;;;;5035128;28;20467;-56
2021/03/27 00:49:55;;;;;;;10.77;5.33;;;;;;;;;;5035513;28;20025;-56
2021/03/27 00:52:22;;;;;;;10.10;4.57;;;;;;;;;;5035261;28;20036;-56
2021/03/27 00:54:52;;;;;;;12.23;4.68;;;;;;;;;;5035578;28;20075;-56
2021/03/27 00:57:21;;;;;;;10.07;4.15;;;;;;;;;;5035172;28;20439;-56
2021/03/27 00:59:53;;;;;;;11.32;3.75;;;;;;;;;;5035397;28;20116;-56
2021/03/27 01:02:20;;;;;;;7.25;4.03;;;;;;;;;;5035390;28;20096;-56
2021/03/27 01:04:47;;;;;;;7.53;3.30;;;;;;;;;;5035036;28;20060;-56
2021/03/27 01:07:14;;;;;;;7.05;3.20;;;;;;;;;;5034676;28;20095;-56
2021/03/27 01:09:45;;;;;;;6.15;3.40;;;;;;;;;;5035238;28;20541;-55
2021/03/27 01:12:16;;;;;;;7.00;3.38;;;;;;;;;;5034641;28;20080;-56
2021/03/27 01:14:45;;;;;;;5.88;2.90;;;;;;;;;;5034913;28;20036;-56
2021/03/27 01:17:12;;;;;;;6.70;2.92;;;;;;;;;;5034612;28;20026;-56
2021/03/27 01:19:44;;;;;;;7.47;3.08;;;;;;;;;;5034713;28;20053;-56
2021/03/27 01:22:12;;;;;;;4.30;2.38;;;;;;;;;;5033629;28;20017;-56
2021/03/27 01:24:38;;;;;;;2.80;2.22;;;;;;;;;;5034896;28;20025;-56
2021/03/27 01:27:27;;;;;;;5.20;2.03;;;;;;;;;;5034561;28;20041;-56
2021/03/27 01:29:59;;;;;;;4.68;1.80;;;;;;;;;;5034395;28;20021;-56
2021/03/27 01:32:31;;;;;;;5.25;1.98;;;;;;;;;;5034887;28;20017;-56
2021/03/27 01:34:59;;;;;;;6.22;2.50;;;;;;;;;;5034779;28;20359;-56
2021/03/27 01:37:38;;;;;;;5.80;2.03;;;;;;;;;;5034260;28;20396;-56
2021/03/27 01:40:08;;;;;;;3.15;1.98;;;;;;;;;;5034451;28;20063;-56
2021/03/27 01:42:37;;;;;;;4.80;2.42;;;;;;;;;;5034535;28;20350;-56
2021/03/27 01:45:09;;;;;;;3.80;2.00;;;;;;;;;;5034199;28;20049;-56
2021/03/27 01:47:38;;;;;;;3.28;2.05;;;;;;;;;;5034024;28;20025;-56
2021/03/27 01:50:27;;;;;;;3.03;1.90;;;;;;;;;;5034342;28;20189;-56
2021/03/27 01:53:08;;;;;;;3.58;1.85;;;;;;;;;;5034241;28;20410;-55
2021/03/27 01:55:34;;;;;;;2.67;1.90;;;;;;;;;;5034303;28;20025;-56
2021/03/27 01:58:00;;;;;;;5.22;2.17;;;;;;;;;;5034125;28;20100;-56
2021/03/27 02:00:31;;;;;;;4.47;2.38;;;;;;;;;;5034130;28;20421;-56
2021/03/27 02:03:04;;;;;;;3.35;1.58;;;;;;;;;;5034103;28;20451;-56
2021/03/27 02:05:36;;;;;;;4.30;1.25;;;;;;;;;;5034331;28;20029;-56
2021/03/27 02:08:06;;;;;;;3.53;2.10;;;;;;;;;;5033827;28;20152;-56
2021/03/27 02:10:32;;;;;;;3.42;2.42;;;;;;;;;;5034028;28;20021;-56
2021/03/27 02:13:00;;;;;;;4.65;2.38;;;;;;;;;;5034071;28;20036;-56
2021/03/27 02:15:45;;;;;;;5.88;2.20;;;;;;;;;;5033905;28;20369;-56
2021/03/27 02:18:14;;;;;;;4.28;2.75;;;;;;;;;;5033532;28;20406;-56
2021/03/27 02:20:43;;;;;;;5.07;1.85;;;;;;;;;;5033955;28;20347;-56
2021/03/27 02:23:12;;;;;;;2.90;1.35;;;;;;;;;;5032749;28;20117;-56
2021/03/27 02:25:58;;;;;;;2.03;1.67;;;;;;;;;;5033534;28;20439;-56
2021/03/27 02:28:42;;;;;;;5.18;3.40;;;;;;;;;;5033597;28;20071;-56
2021/03/27 02:31:25;;;;;;;3.63;2.17;;;;;;;;;;5032762;28;20039;-56
2021/03/27 02:34:00;;;;;;;3.75;2.15;;;;;;;;;;5034380;28;20116;-56
2021/03/27 02:36:26;;;;;;;4.20;2.90;;;;;;;;;;5043247;28;20473;-56
2021/03/27 02:39:10;;;;;;;5.28;2.53;;;;;;;;;;5053154;28;20025;-56
2021/03/27 02:41:47;;;;;;;5.97;2.78;;;;;;;;;;5052278;28;20112;-56
2021/03/27 02:44:16;;;;;;;8.35;2.47;;;;;;;;;;5053389;28;20538;-56
2021/03/27 02:46:46;;;;;;;5.45;2.65;;;;;;;;;;5046905;28;20040;-56
2021/03/27 02:49:31;;;;;;;6.97;3.08;;;;;;;;;;5053501;28;20021;-57
2021/03/27 02:52:10;;;;;;;3.58;2.25;;;;;;;;;;5053178;28;20025;-56
2021/03/27 02:54:39;;;;;;;2.55;2.05;;;;;;;;;;5053308;28;20052;-56
2021/03/27 02:57:14;;;;;;;5.20;2.45;;;;;;;;;;5052810;28;20108;-56
2021/03/27 02:59:46;;;;;;;3.88;2.53;;;;;;;;;;5053233;28;20039;-57
2021/03/27 03:02:24;;;;;;;4.10;2.25;;;;;;;;;;5052982;28;20047;-57
2021/03/27 03:04:56;;;;;;;3.38;2.20;;;;;;;;;;5053241;28;20029;-57
2021/03/27 03:07:25;;;;;;;3.47;2.28;;;;;;;;;;5052551;28;20115;-57
2021/03/27 03:09:50;;;;;;;5.47;2.53;;;;;;;;;;5053089;28;20083;-56
2021/03/27 03:12:49;;;;;;;5.25;2.30;;;;;;;;;;5052677;28;20450;-57
2021/03/27 03:15:21;;;;;;;2.75;2.25;;;;;;;;;;5050518;28;20037;-57
2021/03/27 03:17:52;;;;;;;3.75;1.90;;;;;;;;;;5050204;28;20385;-57
2021/03/27 03:20:18;;;;;;;;;;;;;;;;;;5051012;28;20028;-57
2021/03/27 03:22:50;;;;;;;3.75;2.03;;;;;;;;;;5041497;28;20011;-57
2021/03/27 03:25:18;;;;;;;3.00;2.08;;;;;;;;;;5030627;28;20096;-57
2021/03/27 03:27:53;;;;;;;5.00;2.22;;;;;;;;;;5030163;28;20471;-57
2021/03/27 03:30:37;;;;;;;2.47;1.50;;;;;;;;;;5013967;28;20466;-57
2021/03/27 03:33:05;;;;;;;0.98;0.88;;;;;;;;;;5030486;28;20021;-57
2021/03/27 03:35:34;;;;;;;3.60;1.75;;;;;;;;;;5033679;28;20033;-57
2021/03/27 03:38:15;;;;;;;2.28;1.25;;;;;;;;;;5033967;28;20041;-57
2021/03/27 03:40:49;;;;;;;3.10;1.60;;;;;;;;;;5034571;28;20450;-57
2021/03/27 03:43:15;;;;;;;4.05;2.25;;;;;;;;;;5034119;28;20033;-57
2021/03/27 03:45:52;;;;;;;4.07;1.70;;;;;;;;;;5034047;28;20032;-57
2021/03/27 03:48:39;;;;;;;3.90;1.73;;;;;;;;;;5033946;28;20112;-57
2021/03/27 03:51:05;;;;;;;2.30;1.65;;;;;;;;;;5027277;28;20463;-57
2021/03/27 03:53:40;;;;;;;3.67;1.73;;;;;;;;;;5036549;28;20048;-57
2021/03/27 03:56:26;;;;;;;2.70;1.73;;;;;;;;;;5035622;28;20031;-56
2021/03/27 03:59:10;;;;;;;2.75;1.55;;;;;;;;;;5055899;28;20382;-57
2021/03/27 04:01:41;;;;;;;1.23;1.10;;;;;;;;;;5054894;28;20037;-57
2021/03/27 04:04:09;;;;;;;2.15;1.15;;;;;;;;;;5056791;28;20025;-57
2021/03/27 04:06:38;;;;;;;3.38;0.93;;;;;;;;;;5035434;28;20033;-57
2021/03/27 04:09:23;;;;;;;2.63;1.83;;;;;;;;;;5035115;28;20022;-57
2021/03/27 04:11:49;;;;;;;3.30;1.77;;;;;;;;;;5036214;28;20033;-57
2021/03/27 04:14:28;;;;;;;2.20;1.85;;;;;;;;;;5035764;28;20026;-57
2021/03/27 04:16:59;;;;;;;3.45;1.73;;;;;;;;;;5036066;28;20561;-57
2021/03/27 04:19:27;;;;;;;0.73;0.73;;;;;;;;;;5034832;28;20072;-57
2021/03/27 04:22:02;;;;;;;3.22;2.00;;;;;;;;;;5041172;28;20025;-57
2021/03/27 04:24:30;;;;;;;2.17;1.17;;;;;;;;;;5049535;28;20450;-57
2021/03/27 04:26:58;;;;;;;3.88;0.63;;;;;;;;;;5055418;28;20530;-57
2021/03/27 04:29:33;;;;;;;4.25;1.88;;;;;;;;;;5055949;28;20025;-57
2021/03/27 04:32:05;;;;;;;1.42;1.05;;;;;;;;;;5055942;28;20052;-57
2021/03/27 04:34:34;;;;;;;4.72;0.82;;;;;;;;;;5055838;28;20104;-57
2021/03/27 04:37:03;;;;;;;1.65;1.40;;;;;;;;;;5055797;28;20120;-57
2021/03/27 04:39:29;;;;;;;4.78;2.25;;;;;;;;;;5055628;28;20013;-57
2021/03/27 04:42:11;;;;;;;3.72;2.05;;;;;;;;;;5055449;28;20098;-57
2021/03/27 04:44:44;;;;;;;3.55;1.58;;;;;;;;;;5055662;28;20417;-57
2021/03/27 04:47:10;;;;;;;2.92;1.83;;;;;;;;;;5054178;28;20048;-57
2021/03/27 04:49:36;;;;;;;2.95;1.63;;;;;;;;;;5055253;28;20025;-57
2021/03/27 04:52:14;;;;;;;2.35;1.40;;;;;;;;;;5055364;28;20043;-57
2021/03/27 04:54:55;;;;;;;2.20;1.63;;;;;;;;;;5055797;28;20029;-56
2021/03/27 04:57:29;;;;;;;1.55;1.30;;;;;;;;;;5054866;28;20021;-57
2021/03/27 05:00:04;;;;;;;2.30;1.63;;;;;;;;;;5054084;28;20435;-57
2021/03/27 05:02:54;;;;;;;2.78;1.98;;;;;;;;;;5053779;28;20036;-57
2021/03/27 05:05:20;;;;;;;;;;;;;;;;;;5055839;28;20021;-57
2021/03/27 05:07:51;;;;;;;2.42;1.35;;;;;;;;;;5055053;28;19920;-57
2021/03/27 05:10:17;;;;;;;1.92;1.23;;;;;;;;;;5055226;28;20032;-57
2021/03/27 05:13:00;;;;;;;2.30;1.10;;;;;;;;;;5054771;28;20363;-57
2021/03/27 05:15:26;;;;;;;3.42;1.73;;;;;;;;;;5054543;28;20021;-57
2021/03/27 05:18:01;;;;;;;1.40;1.20;;;;;;;;;;5045077;28;20067;-57
2021/03/27 05:20:28;;;;;;;3.17;1.80;;;;;;;;;;5045517;28;20031;-57
2021/03/27 05:22:54;;;;;;;1.77;1.30;;;;;;;;;;5041826;28;20029;-57
2021/03/27 05:25:23;;;;;;;4.85;0.68;;;;;;;;;;5053357;28;20021;-57
2021/03/27 05:28:01;;;;;;;0.40;0.40;;;;;;;;;;5054454;28;20409;-57
2021/03/27 05:30:46;;;;;;;0.75;0.50;;;;;;;;;;5054939;28;20020;-57
2021/03/27 05:33:21;;;;;;;1.00;0.73;;;;;;;;;;5047357;28;20099;-57
2021/03/27 05:36:06;;;;;;;0.40;0.40;;;;;;;;;;5045179;28;20032;-57
2021/03/27 05:38:40;;;;;;;0.52;0.52;;;;;;;;;;5042060;28;20021;-57
2021/03/27 05:41:25;;;;;;;0.45;0.45;;;;;;;;;;5043319;28;20033;-57
2021/03/27 05:43:57;;;;;;;0.38;0.38;;;;;;;;;;5044351;28;20033;-57
2021/03/27 05:46:41;;;;;;;0.40;0.40;;;;;;;;;;5043796;28;20040;-56
2021/03/27 05:49:26;;;;;;;0.57;0.57;;;;;;;;;;5046385;28;20033;-57
2021/03/27 05:51:52;;;;;;;0.88;0.80;;;;;;;;;;5044877;28;20104;-57
2021/03/27 05:54:24;;;;;;;0.50;0.50;;;;;;;;;;5042488;28;20108;-57
2021/03/27 05:57:01;;;;;;;0.93;0.60;;;;;;;;;;5041728;28;20025;-57
2021/03/27 06:00:05;;;;;;;0.47;0.47;;;;;;;;;;5037070;28;20108;-57
2021/03/27 06:02:40;;;;;;;0.93;0.52;;;;;;;;;;4995352;28;20037;-57
2021/03/27 06:05:09;;;;;;;0.85;0.57;;;;;;;;;;5012084;28;20503;-57
2021/03/27 06:07:56;;;;;;;0.40;0.40;;;;;;;;;;5011404;28;20038;-57
2021/03/27 06:10:28;;;;;;;0.38;0.38;;;;;;;;;;4998122;28;20017;-56
2021/03/27 06:12:54;;;;;;;0.60;0.60;;;;;;;;;;5019510;28;20088;-57
2021/03/27 06:15:37;;;;;;;0.60;0.60;;;;;;;;;;5005765;28;20083;-57
2021/03/27 06:18:25;;;;;;;0.40;0.40;;;;;;;;;;5022133;28;20057;-57
2021/03/27 06:21:09;;;;;;;0.75;0.75;;;;;;;;;;5018995;28;20072;-57
2021/03/27 06:23:38;;;;;;;0.52;0.52;;;;;;;;;;5011361;28;20030;-57
2021/03/27 06:26:23;;;;;;;3.08;0.60;;;;;;;;;;5011494;28;20060;-57
2021/03/27 06:28:55;;;;;;;0.80;0.60;;;;;;;;;;5011249;28;20359;-57
2021/03/27 06:31:40;;;;;;;0.47;0.47;;;;;;;;;;5016241;28;20026;-57
2021/03/27 06:34:12;;;;;;;0.57;0.57;;;;;;;;;;5029868;28;20045;-56
2021/03/27 06:36:57;;;;;;;0.60;0.60;;;;;;;;;;5033619;28;20026;-55
2021/03/27 06:39:41;;;;;;;2.17;1.20;;;;;;;;;;5033360;28;20034;-55
2021/03/27 06:42:07;;;;;;;0.70;0.70;;;;;;;;;;5033387;28;20467;-55
2021/03/27 06:44:39;;;;;;;1.10;0.60;;;;;;;;;;5033355;28;20649;-55
2021/03/27 06:47:24;;;;;;;1.75;0.70;;;;;;;;;;5033263;28;20048;-55
2021/03/27 06:50:09;;;;;;;0.82;0.63;;;;;;;;;;5041406;28;20025;-55
2021/03/27 06:52:38;;;;;;;0.70;0.70;;;;;;;;;;5053837;28;20426;-55
2021/03/27 06:55:25;;;;;;;1.42;0.60;;;;;;;;;;5053971;28;20032;-55
2021/03/27 06:57:52;;;;;;;0.57;0.57;;;;;;;;;;5053352;28;20051;-55
2021/03/27 07:00:37;;;;;;;0.77;0.70;;;;;;;;;;5054680;28;20032;-55
2021/03/27 07:03:03;;;;;;;1.17;0.80;;;;;;;;;;5047688;28;20032;-55
2021/03/27 07:05:48;;;;;;;0.68;0.60;;;;;;;;;;5054192;28;20124;-54
2021/03/27 07:08:32;;;;;;;0.77;0.77;;;;;;;;;;5033884;28;20030;-55
2021/03/27 07:11:17;;;;;;;0.70;0.70;;;;;;;;;;5038570;28;20036;-55
2021/03/27 07:13:59;;;;;;;1.00;0.57;;;;;;;;;;5036719;28;20063;-55
2021/03/27 07:16:25;;;;;;;0.60;0.60;;;;;;;;;;5034490;28;20072;-55
2021/03/27 07:19:01;;;;;;;0.50;0.50;;;;;;;;;;5033976;28;20036;-55
2021/03/27 07:21:40;;;;;;;0.40;0.40;;;;;;;;;;5042511;28;20025;-56
2021/03/27 07:24:26;;;;;;;0.52;0.50;;;;;;;;;;5048655;28;20032;-57
2021/03/27 07:27:09;;;;;;;1.35;0.60;;;;;;;;;;5053501;28;20040;-54
2021/03/27 07:29:54;;;;;;;0.50;0.50;;;;;;;;;;5051868;28;20025;-54
2021/03/27 07:32:29;;;;;;;0.70;0.70;;;;;;;;;;5052165;28;20028;-55
2021/03/27 07:35:02;;;;;;;0.80;0.80;;;;;;;;;;5053369;28;20436;-54
2021/03/27 07:37:52;;;;;;;0.52;0.52;;;;;;;;;;5053586;28;20100;-54
2021/03/27 07:40:27;;;;;;;0.40;0.40;;;;;;;;;;5052141;28;20033;-54
2021/03/27 07:43:13;;;;;;;1.23;0.50;;;;;;;;;;5053142;28;20119;-55
2021/03/27 07:45:57;;;;;;;1.23;0.70;;;;;;;;;;5051429;28;20402;-54
2021/03/27 07:48:41;;;;;;;0.35;0.35;;;;;;;;;;5052182;28;20359;-56
2021/03/27 07:51:29;;;;;;;0.65;0.50;;;;;;;;;;5051382;28;20035;-56
2021/03/27 07:54:14;;;;;;;0.55;0.50;;;;;;;;;;5050939;28;20047;-57
2021/03/27 07:56:40;;;;;;;1.27;1.17;;;;;;;;;;5028363;28;20041;-57
2021/03/27 07:59:21;;;;;;;0.63;0.60;;;;;;;;;;5035750;28;20021;-57
2021/03/27 08:01:53;;;;;;;0.50;0.50;;;;;;;;;;5034959;28;20540;-57
2021/03/27 08:04:28;;;;;;;1.42;0.43;;;;;;;;;;5034780;28;20358;-57
2021/03/27 08:06:57;;;;;;;0.63;0.52;;;;;;;;;;5035781;28;20073;-59
2021/03/27 08:09:55;;;;;;;0.40;0.40;;;;;;;;;;5045432;28;20021;-57
2021/03/27 08:12:27;;;;;;;1.20;0.50;;;;;;;;;;5042952;28;20053;-57
2021/03/27 08:14:56;;;;;;;3.42;0.90;;;;;;;;;;5044755;28;20021;-57
2021/03/27 08:17:41;;;;;;;0.45;0.45;;;;;;;;;;5041698;28;20333;-57
2021/03/27 08:20:25;;;;;;;0.43;0.43;;;;;;;;;;5041541;28;20370;-57
2021/03/27 08:23:06;;;;;;;0.50;0.50;;;;;;;;;;5043165;28;20358;-57
2021/03/27 08:25:45;;;;;;;0.73;0.73;;;;;;;;;;5043746;28;20038;-57
2021/03/27 08:28:11;;;;;;;4.53;1.10;;;;;;;;;;5046649;28;20174;-57
2021/03/27 08:31:08;;;;;;;0.45;0.45;;;;;;;;;;5048695;28;20513;-57
2021/03/27 08:33:40;;;;;;;0.50;0.50;;;;;;;;;;5041225;28;20033;-57
2021/03/27 08:36:27;;;;;;;0.32;0.32;;;;;;;;;;5040757;28;20044;-57
2021/03/27 08:39:05;;;;;;;3.20;0.73;;;;;;;;;;5044180;28;20028;-57
2021/03/27 08:41:46;;;;;;;0.60;0.52;;;;;;;;;;5048120;28;20044;-57
2021/03/27 08:44:31;;;;;;;4.47;0.70;;;;;;;;;;5043501;28;20135;-57
2021/03/27 08:47:03;;;;;;;1.30;0.80;;;;;;;;;;5045751;28;20051;-57
2021/03/27 08:49:48;;;;;;;2.42;0.85;;;;;;;;;;5045176;28;20394;-57
2021/03/27 08:52:29;;;;;;;2.25;0.60;;;;;;;;;;5045390;28;20033;-57
2021/03/27 08:55:07;;;;;;;0.30;0.30;;;;;;;;;;5037977;28;20029;-57
2021/03/27 08:57:53;;;;;;;0.50;0.50;;;;;;;;;;5037449;28;20029;-57
2021/03/27 09:00:37;;;;;;;0.40;0.40;;;;;;;;;;5048201;28;20366;-57
2021/03/27 09:03:12;;;;;;;0.32;0.32;;;;;;;;;;5044187;28;20088;-57
2021/03/27 09:05:57;;;;;;;2.03;0.90;;;;;;;;;;5036212;28;20025;-56
2021/03/27 09:08:43;;;;;;;5.40;0.90;;;;;;;;;;5049162;28;20048;-57
2021/03/27 09:11:11;;;;;;;3.72;0.88;;;;;;;;;;5049770;28;20026;-57
2021/03/27 09:13:55;;;;;;;1.52;0.63;;;;;;;;;;5040256;28;20104;-57
2021/03/27 09:16:47;;;;;;;0.93;0.93;;;;;;;;;;5036753;28;20048;-57
2021/03/27 09:19:16;;;;;;;4.85;0.85;;;;;;;;;;5046883;28;20021;-57
2021/03/27 09:21:55;;;;;;;1.23;0.50;;;;;;;;;;5054155;28;20447;-56
2021/03/27 09:24:29;;;;;;;2.85;0.52;;;;;;;;;;5040502;28;20033;-57
2021/03/27 09:26:58;;;;;;;0.85;0.57;;;;;;;;;;5051701;28;20033;-56
2021/03/27 09:29:27;;;;;;;8.43;1.02;;;;;;;;;;5048919;28;20029;-57
2021/03/27 09:32:03;;;;;;;7.88;1.40;;;;;;;;;;5053859;28;20021;-56
2021/03/27 09:34:41;;;;;;;1.92;0.85;;;;;;;;;;5052755;28;20032;-56
2021/03/27 09:37:26;;;;;;;1.63;0.70;;;;;;;;;;5052668;28;20037;-56
2021/03/27 09:39:54;;;;;;;1.63;0.63;;;;;;;;;;5044038;28;20029;-56
2021/03/27 09:42:39;;;;;;;2.03;0.52;;;;;;;;;;5050991;28;20026;-57
2021/03/27 09:45:15;;;;;;;1.05;0.95;;;;;;;;;;5049862;28;20091;-56
2021/03/27 09:47:54;;;;;;;3.08;0.60;;;;;;;;;;5041908;28;20034;-57
2021/03/27 09:50:29;;;;;;;1.08;0.63;;;;;;;;;;5043218;28;20083;-56
2021/03/27 09:53:04;;;;;;;3.70;0.40;;;;;;;;;;5048250;28;20025;-56
2021/03/27 09:55:36;;;;;;;0.60;0.57;;;;;;;;;;5039821;28;20013;-56
2021/03/27 09:58:08;;;;;;;0.93;0.47;;;;;;;;;;5043669;28;20029;-56
2021/03/27 10:00:43;;;;;;;2.92;0.40;;;;;;;;;;5043384;28;20029;-56
2021/03/27 10:03:15;;;;;;;0.55;0.40;;;;;;;;;;5044645;28;20363;-56
2021/03/27 10:05:44;;;;;;;3.42;0.68;;;;;;;;;;5047005;28;20111;-56
2021/03/27 10:08:36;;;;;;;0.40;0.40;;;;;;;;;;5044481;28;20115;-56
2021/03/27 10:11:04;;;;;;;0.55;0.55;;;;;;;;;;5045425;28;20028;-56
2021/03/27 10:13:36;;;;;;;0.55;0.40;;;;;;;;;;5044064;28;20017;-56
2021/03/27 10:16:04;;;;;;;0.75;0.47;;;;;;;;;;5045015;28;20029;-56
2021/03/27 10:18:35;;;;;;;1.23;0.50;;;;;;;;;;5040248;28;20029;-56
2021/03/27 10:21:07;;;;;;;0.63;0.60;;;;;;;;;;5052183;28;20087;-56
2021/03/27 10:23:38;;;;;;;3.55;0.93;;;;;;;;;;5038438;28;20029;-56
2021/03/27 10:26:15;;;;;;;1.50;0.82;;;;;;;;;;5053079;28;20037;-56
2021/03/27 10:28:47;;;;;;;0.30;0.30;;;;;;;;;;5052977;28;20451;-56
2021/03/27 10:31:16;;;;;;;4.35;0.88;;;;;;;;;;5046899;28;20120;-55
2021/03/27 10:34:01;;;;;;;0.30;0.30;;;;;;;;;;5049995;28;20037;-55
2021/03/27 10:36:30;;;;;;;3.92;0.47;;;;;;;;;;5053582;28;20118;-55
2021/03/27 10:38:55;;;;;;;0.40;0.40;;;;;;;;;;5052045;28;20025;-56
2021/03/27 10:41:28;;;;;;;2.83;0.50;;;;;;;;;;5045939;28;20074;-56
2021/03/27 10:44:08;;;;;;;2.38;0.55;;;;;;;;;;5052267;28;20025;-55
2021/03/27 10:46:37;;;;;;;1.30;0.63;;;;;;;;;;5052384;28;20029;-56
2021/03/27 10:49:21;;;;;;;0.55;0.52;;;;;;;;;;5052477;28;20025;-56
2021/03/27 10:52:06;;;;;;;0.52;0.45;;;;;;;;;;5051903;28;20037;-56
2021/03/27 10:54:32;;;;;;;3.58;0.50;;;;;;;;;;5052519;28;20025;-55
2021/03/27 10:57:16;;;;;;;0.80;0.50;;;;;;;;;;5052702;28;20465;-56
2021/03/27 10:59:51;;;;;;;1.45;0.70;;;;;;;;;;5052563;28;20110;-55
2021/03/27 11:02:17;;;;;;;0.52;0.47;;;;;;;;;;5048928;28;20112;-55
2021/03/27 11:05:02;;;;;;;1.27;0.90;;;;;;;;;;5048004;28;20112;-56
2021/03/27 11:07:28;;;;;;;1.15;0.47;;;;;;;;;;5046720;28;20036;-55
2021/03/27 11:10:02;;;;;;;0.60;0.60;;;;;;;;;;5044667;28;20050;-55
2021/03/27 11:12:51;;;;;;;0.57;0.50;;;;;;;;;;5046600;28;20060;-55
2021/03/27 11:15:41;;;;;;;0.40;0.40;;;;;;;;;;5043158;28;20021;-56
2021/03/27 11:18:26;;;;;;;1.70;0.73;;;;;;;;;;5047646;28;20036;-57
2021/03/27 11:21:21;;;;;;;0.55;0.30;;;;;;;;;;5050072;28;20457;-57
2021/03/27 11:23:50;;;;;;;1.33;0.70;;;;;;;;;;5040727;28;20091;-57
2021/03/27 11:26:34;;;;;;;1.58;0.60;;;;;;;;;;5042309;28;20040;-58
2021/03/27 11:29:27;;;;;;;0.73;0.65;;;;;;;;;;5041099;28;20636;-55
2021/03/27 11:32:06;;;;;;;1.08;0.50;;;;;;;;;;5047458;28;20398;-56
2021/03/27 11:34:35;;;;;;;0.65;0.60;;;;;;;;;;5049083;28;20040;-55
2021/03/27 11:37:04;;;;;;;6.35;1.35;;;;;;;;;;5036632;28;20033;-56
2021/03/27 11:39:33;;;;;;;11.00;1.75;;;;;;;;;;5045796;28;20040;-56
2021/03/27 11:42:20;;;;;;;0.65;0.50;;;;;;;;;;5031367;28;20025;-55
2021/03/27 11:45:04;;;;;;;0.65;0.40;;;;;;;;;;5042134;28;20064;-56
2021/03/27 11:47:30;;;;;;;1.45;0.63;;;;;;;;;;5049189;28;20119;-55
2021/03/27 11:50:08;;;;;;;0.50;0.50;;;;;;;;;;5049893;28;20494;-55
2021/03/27 11:52:52;;;;;;;0.50;0.50;;;;;;;;;;5049261;28;20079;-55
2021/03/27 11:55:22;;;;;;;0.50;0.50;;;;;;;;;;5046092;28;20429;-55
2021/03/27 11:57:51;;;;;;;3.10;0.63;;;;;;;;;;5042281;28;20128;-55
2021/03/27 12:00:47;;;;;;;0.50;0.50;;;;;;;;;;5047936;28;20079;-55
2021/03/27 12:03:29;;;;;;;4.95;0.98;;;;;;;;;;5049197;28;20032;-55
2021/03/27 12:06:13;;;;;;;3.25;0.75;;;;;;;;;;5045553;28;20350;-55
2021/03/27 12:08:44;;;;;;;0.47;0.47;;;;;;;;;;5055191;28;20489;-55
2021/03/27 12:11:28;;;;;;;4.00;0.80;;;;;;;;;;5050671;28;20049;-55
2021/03/27 12:13:57;;;;;;;1.48;0.40;;;;;;;;;;5038157;28;20455;-55
2021/03/27 12:16:23;;;;;;;0.40;0.40;;;;;;;;;;5045255;28;20032;-56
2021/03/27 12:19:15;;;;;;;0.50;0.40;;;;;;;;;;5052032;28;20032;-55
2021/03/27 12:21:50;;;;;;;2.17;0.45;;;;;;;;;;5048699;28;20049;-55
2021/03/27 12:24:19;;;;;;;0.30;0.30;;;;;;;;;;5046863;28;20118;-55
2021/03/27 12:26:55;;;;;;;0.88;0.68;;;;;;;;;;5048504;28;20041;-55
2021/03/27 12:29:39;;;;;;;0.82;0.65;;;;;;;;;;5045667;28;20113;-55
2021/03/27 12:32:24;;;;;;;0.30;0.30;;;;;;;;;;5049138;28;20033;-55
2021/03/27 12:34:53;;;;;;;0.57;0.38;;;;;;;;;;5054051;28;20028;-55
2021/03/27 12:37:41;;;;;;;0.47;0.47;;;;;;;;;;5043341;28;20117;-55
2021/03/27 12:40:16;;;;;;;0.40;0.40;;;;;;;;;;5048366;28;20421;-55
2021/03/27 12:42:47;;;;;;;0.57;0.50;;;;;;;;;;5050729;28;20051;-55
2021/03/27 12:45:25;;;;;;;0.43;0.43;;;;;;;;;;5055356;28;20037;-55
2021/03/27 12:47:56;;;;;;;1.45;0.70;;;;;;;;;;5046685;28;20029;-55
2021/03/27 12:50:25;;;;;;;0.40;0.40;;;;;;;;;;5055117;28;20374;-55
2021/03/27 12:53:30;;;;;;;0.47;0.47;;;;;;;;;;5048874;28;20035;-55
2021/03/27 12:56:14;;;;;;;0.63;0.63;;;;;;;;;;5051364;28;20082;-55
2021/03/27 12:58:49;;;;;;;0.47;0.47;;;;;;;;;;5045764;28;20029;-63
2021/03/27 13:01:15;;;;;;;0.75;0.75;;;;;;;;;;5051240;28;20040;-58
2021/03/27 13:04:05;;;;;;;0.80;0.75;;;;;;;;;;5035043;28;20013;-55
2021/03/27 13:06:38;;;;;;;0.80;0.70;;;;;;;;;;5049918;28;20045;-57
2021/03/27 13:09:13;;;;;;;0.50;0.50;;;;;;;;;;5019372;28;20490;-58
2021/03/27 13:11:51;;;;;;;0.50;0.50;;;;;;;;;;5049351;28;20033;-57
2021/03/27 13:14:25;;;;;;;1.48;0.95;;;;;;;;;;5036889;28;20033;-58
2021/03/27 13:16:54;;;;;;;1.38;0.80;;;;;;;;;;5034760;28;20028;-57
2021/03/27 13:19:35;;;;;;;0.50;0.50;;;;;;;;;;5044577;28;20021;-57
2021/03/27 13:22:07;;;;;;;0.95;0.57;;;;;;;;;;5032077;28;20040;-57
2021/03/27 13:24:33;;;;;;;0.50;0.50;;;;;;;;;;5039294;28;20025;-57
2021/03/27 13:27:09;;;;;;;2.00;0.95;;;;;;;;;;5053359;28;20049;-57
2021/03/27 13:29:39;;;;;;;1.15;1.13;;;;;;;;;;5049964;28;20403;-54
2021/03/27 13:32:17;;;;;;;2.72;1.25;;;;;;;;;;5048189;28;20033;-55
2021/03/27 13:34:43;;;;;;;1.13;0.80;;;;;;;;;;5053998;28;20028;-54
2021/03/27 13:37:17;;;;;;;0.70;0.52;;;;;;;;;;5052324;28;20350;-54
2021/03/27 13:39:49;;;;;;;1.75;0.80;;;;;;;;;;5054022;28;20025;-54
2021/03/27 13:42:27;;;;;;;0.40;0.40;;;;;;;;;;5038848;28;20039;-54
2021/03/27 13:44:53;;;;;;;0.40;0.40;;;;;;;;;;5053598;28;20048;-54
2021/03/27 13:47:27;;;;;;;1.30;1.10;;;;;;;;;;5053847;28;20454;-54
2021/03/27 13:49:58;;;;;;;0.80;0.57;;;;;;;;;;5052285;28;20032;-55
2021/03/27 13:52:30;;;;;;;0.40;0.40;;;;;;;;;;5043992;28;20033;-54
2021/03/27 13:55:28;;;;;;;3.30;0.47;;;;;;;;;;5045247;28;20037;-54
2021/03/27 13:58:01;;;;;;;0.57;0.57;;;;;;;;;;5064282;28;20036;-54
2021/03/27 14:00:33;;;;;;;1.10;0.63;;;;;;;;;;5062879;28;20037;-55
2021/03/27 14:03:07;;;;;;;2.42;0.40;;;;;;;;;;5059569;28;20032;-55
2021/03/27 14:05:39;;;;;;;1.98;0.60;;;;;;;;;;5071338;28;20033;-54
2021/03/27 14:08:12;;;;;;;0.77;0.60;;;;;;;;;;5054534;28;20068;-54
2021/03/27 14:10:39;;;;;;;1.50;0.52;;;;;;;;;;5071234;28;20042;-54
2021/03/27 14:13:19;;;;;;;4.97;0.80;;;;;;;;;;5059980;28;20036;-54
2021/03/27 14:15:47;;;;;;;2.13;0.70;;;;;;;;;;5067438;28;20218;-54
2021/03/27 14:18:20;;;;;;;0.65;0.52;;;;;;;;;;5070603;28;20352;-55
2021/03/27 14:20:49;;;;;;;4.20;0.68;;;;;;;;;;5071065;28;20037;-55
2021/03/27 14:23:30;;;;;;;1.90;0.70;;;;;;;;;;5058707;28;20079;-55
2021/03/27 14:26:09;;;;;;;0.60;0.60;;;;;;;;;;5069166;28;20055;-54
2021/03/27 14:28:54;;;;;;;3.40;0.95;;;;;;;;;;5067913;28;20032;-54
2021/03/27 14:31:38;;;;;;;2.05;0.75;;;;;;;;;;5065843;28;20078;-54
2021/03/27 14:34:23;;;;;;;1.23;0.70;;;;;;;;;;5046042;28;20082;-54
2021/03/27 14:37:08;;;;;;;0.50;0.50;;;;;;;;;;5052634;28;20347;-54
2021/03/27 14:39:56;;;;;;;2.47;0.40;;;;;;;;;;5053287;28;20087;-54
2021/03/27 14:42:31;;;;;;;0.95;0.80;;;;;;;;;;5038977;28;20120;-54
2021/03/27 14:45:05;;;;;;;1.75;0.75;;;;;;;;;;5052791;28;20444;-55
2021/03/27 14:47:31;;;;;;;3.13;0.80;;;;;;;;;;5045743;28;20455;-56
2021/03/27 14:50:15;;;;;;;5.50;1.73;;;;;;;;;;5052884;28;20076;-54
2021/03/27 14:52:54;;;;;;;8.05;2.53;;;;;;;;;;5053121;28;20043;-54
2021/03/27 14:55:20;;;;;;;13.27;4.10;;;;;;;;;;5052466;28;20439;-54
2021/03/27 14:57:57;;;;;;;10.88;2.80;;;;;;;;;;5049176;28;20025;-56
2021/03/27 15:00:23;;;;;;;21.23;4.95;;;;;;;;;;5052867;28;20431;-54
2021/03/27 15:03:04;;;;;;;11.75;3.22;;;;;;;;;;5052820;28;20033;-54
2021/03/27 15:05:32;;;;;;;4.55;2.13;;;;;;;;;;5052889;28;20094;-54
2021/03/27 15:08:18;;;;;;;10.82;3.20;;;;;;;;;;5052030;28;20047;-54
2021/03/27 15:10:57;;;;;;;11.57;2.80;;;;;;;;;;5040894;28;20037;-54
2021/03/27 15:13:34;;;;;;;2.92;1.35;;;;;;;;;;5053061;28;20178;-54
2021/03/27 15:16:03;;;;;;;8.43;1.73;;;;;;;;;;5052263;28;20116;-54
2021/03/27 15:18:46;;;;;;;1.38;0.82;;;;;;;;;;5052083;28;20028;-54
2021/03/27 15:21:14;;;;;;;6.60;0.80;;;;;;;;;;5045561;28;20032;-53
2021/03/27 15:23:50;;;;;;;4.97;1.00;;;;;;;;;;5036489;28;20071;-55
2021/03/27 15:29:16;;;;;;;13.02;1.90;;;;;;;;;;5048899;28;20036;-55
2021/03/27 15:31:52;;;;;;;6.05;1.25;;;;;;;;;;5055737;28;20063;-54
2021/03/27 15:34:24;;;;;;;8.98;1.33;;;;;;;;;;5049756;28;20043;-55
2021/03/27 15:36:50;;;;;;;2.63;0.82;;;;;;;;;;5055309;28;20032;-55